Pagina principale
METAR-TAF:

METAR-TAF

Aeroporti :

Toussus-le-Noble, Francia

latitudine: 48-46N, longitudine: 002-06E, altezza: 164 m

Osservazione

Il bollettino è stato emesso 22 minuti fa, alle 06:00 UTC
Vento 9 kt da nord-est, variando fra nord e est/nord-est
Temperature 20°C
Umidità 83%
Pressione 1023 hPa
Visibilità 10 km o più
nessuna nube inferiore a 1500 m e nessun cumulonembo

METAR: LFPN 270600Z AUTO 04009KT 010V070 CAVOK 20/17 Q1023 NOSIG

Ora: 08:22 (06:22 UTC)

Previsione

Il bollettino è stato emesso 1 ora e 22 minuti fa, alle 05:00 UTC
Previsione valida dal 27 alle 06 UTC al 27 alle 15 UTC
Vento 12 kt da nord-est
Visibilità 10 km o più
nessuna nube inferiore a 1500 m e nessun cumulonembo

TAF: LFPN 270500Z 2706/2715 04012KT CAVOK

Osservazioni e previsioni meteorologiche di più di 4000 aeroporti (messaggi METAR e TAF).

Le stazioni disponibili sono rappresentate dai dischi gialli e rossi sulla carta.

Puntare il mouse per vedere il nome della stazione.

Clicca sopra per visualizzare le osservazioni e previsioni meteorologiche.

Per cambiare la mappa : fare clic sui pulsanti verdi con una croce nera per ingrandire, il pulsante verde con un trattino per diminuire, o sulla freccia verde per le mappe adiacenti.


METAR-TAF: